sensor_id;sensor_type;location;lat;lon;timestamp;P1;durP1;ratioP1;P2;durP2;ratioP2
48853;SDS011;34673;52.808;17.856;2022-07-23T00:00:40;7.03;;;6.05;;
48853;SDS011;34673;52.808;17.856;2022-07-23T00:03:08;7.40;;;5.72;;
48853;SDS011;34673;52.808;17.856;2022-07-23T00:05:35;7.55;;;5.90;;
48853;SDS011;34673;52.808;17.856;2022-07-23T00:08:04;9.30;;;6.28;;
48853;SDS011;34673;52.808;17.856;2022-07-23T00:10:40;7.57;;;5.93;;
48853;SDS011;34673;52.808;17.856;2022-07-23T00:13:07;7.55;;;6.25;;
48853;SDS011;34673;52.808;17.856;2022-07-23T00:15:35;9.95;;;6.28;;
48853;SDS011;34673;52.808;17.856;2022-07-23T00:18:02;7.07;;;5.60;;
48853;SDS011;34673;52.808;17.856;2022-07-23T00:20:29;7.18;;;5.38;;
48853;SDS011;34673;52.808;17.856;2022-07-23T00:22:56;12.45;;;6.60;;
48853;SDS011;34673;52.808;17.856;2022-07-23T00:25:23;7.53;;;6.03;;
48853;SDS011;34673;52.808;17.856;2022-07-23T00:27:56;8.05;;;6.40;;
48853;SDS011;34673;52.808;17.856;2022-07-23T00:30:24;7.38;;;6.40;;
48853;SDS011;34673;52.808;17.856;2022-07-23T00:32:55;7.15;;;6.13;;
48853;SDS011;34673;52.808;17.856;2022-07-23T00:35:27;7.50;;;6.10;;
48853;SDS011;34673;52.808;17.856;2022-07-23T00:37:57;8.43;;;6.85;;
48853;SDS011;34673;52.808;17.856;2022-07-23T00:40:25;7.70;;;6.50;;
48853;SDS011;34673;52.808;17.856;2022-07-23T00:42:53;8.40;;;6.53;;
48853;SDS011;34673;52.808;17.856;2022-07-23T00:45:20;7.72;;;6.55;;
48853;SDS011;34673;52.808;17.856;2022-07-23T00:47:48;8.00;;;6.72;;
48853;SDS011;34673;52.808;17.856;2022-07-23T00:50:15;7.63;;;6.60;;
48853;SDS011;34673;52.808;17.856;2022-07-23T00:52:43;7.47;;;6.22;;
48853;SDS011;34673;52.808;17.856;2022-07-23T00:55:11;7.63;;;6.50;;
48853;SDS011;34673;52.808;17.856;2022-07-23T00:57:39;8.05;;;6.72;;
48853;SDS011;34673;52.808;17.856;2022-07-23T01:00:08;9.07;;;7.40;;
48853;SDS011;34673;52.808;17.856;2022-07-23T01:02:38;8.38;;;6.60;;
48853;SDS011;34673;52.808;17.856;2022-07-23T01:05:06;7.60;;;6.63;;
48853;SDS011;34673;52.808;17.856;2022-07-23T01:07:34;8.30;;;6.70;;
48853;SDS011;34673;52.808;17.856;2022-07-23T01:10:02;10.40;;;6.68;;
48853;SDS011;34673;52.808;17.856;2022-07-23T01:12:32;9.27;;;7.32;;
48853;SDS011;34673;52.808;17.856;2022-07-23T01:14:59;7.18;;;6.40;;
48853;SDS011;34673;52.808;17.856;2022-07-23T01:17:28;7.75;;;6.78;;
48853;SDS011;34673;52.808;17.856;2022-07-23T01:19:55;8.25;;;6.68;;
48853;SDS011;34673;52.808;17.856;2022-07-23T01:22:28;9.38;;;7.40;;
48853;SDS011;34673;52.808;17.856;2022-07-23T01:24:56;8.27;;;6.72;;
48853;SDS011;34673;52.808;17.856;2022-07-23T01:27:25;8.60;;;7.13;;
48853;SDS011;34673;52.808;17.856;2022-07-23T01:29:59;8.20;;;7.40;;
48853;SDS011;34673;52.808;17.856;2022-07-23T01:32:28;7.95;;;7.05;;
48853;SDS011;34673;52.808;17.856;2022-07-23T01:34:55;9.75;;;7.25;;
48853;SDS011;34673;52.808;17.856;2022-07-23T01:37:23;9.40;;;8.00;;
48853;SDS011;34673;52.808;17.856;2022-07-23T01:39:51;9.35;;;7.18;;
48853;SDS011;34673;52.808;17.856;2022-07-23T01:42:19;10.27;;;7.15;;
48853;SDS011;34673;52.808;17.856;2022-07-23T01:44:47;8.90;;;7.35;;
48853;SDS011;34673;52.808;17.856;2022-07-23T01:47:18;7.97;;;6.63;;
48853;SDS011;34673;52.808;17.856;2022-07-23T01:49:49;8.82;;;7.40;;
48853;SDS011;34673;52.808;17.856;2022-07-23T01:52:55;8.38;;;6.85;;
48853;SDS011;34673;52.808;17.856;2022-07-23T01:55:22;8.10;;;6.85;;
48853;SDS011;34673;52.808;17.856;2022-07-23T01:57:50;8.30;;;6.68;;
48853;SDS011;34673;52.808;17.856;2022-07-23T02:00:21;8.73;;;7.47;;
48853;SDS011;34673;52.808;17.856;2022-07-23T02:02:50;8.07;;;6.90;;
48853;SDS011;34673;52.808;17.856;2022-07-23T02:05:21;9.85;;;7.47;;
48853;SDS011;34673;52.808;17.856;2022-07-23T02:07:48;10.25;;;8.07;;
48853;SDS011;34673;52.808;17.856;2022-07-23T02:10:15;8.68;;;7.40;;
48853;SDS011;34673;52.808;17.856;2022-07-23T02:12:42;8.15;;;7.00;;
48853;SDS011;34673;52.808;17.856;2022-07-23T02:15:09;7.70;;;6.90;;
48853;SDS011;34673;52.808;17.856;2022-07-23T02:17:40;8.55;;;7.32;;
48853;SDS011;34673;52.808;17.856;2022-07-23T02:20:10;9.85;;;6.85;;
48853;SDS011;34673;52.808;17.856;2022-07-23T02:22:38;9.88;;;7.25;;
48853;SDS011;34673;52.808;17.856;2022-07-23T02:25:09;9.65;;;8.02;;
48853;SDS011;34673;52.808;17.856;2022-07-23T02:27:37;9.35;;;7.18;;
48853;SDS011;34673;52.808;17.856;2022-07-23T02:30:05;8.00;;;7.10;;
48853;SDS011;34673;52.808;17.856;2022-07-23T02:32:34;9.50;;;7.30;;
48853;SDS011;34673;52.808;17.856;2022-07-23T02:35:03;9.07;;;7.97;;
48853;SDS011;34673;52.808;17.856;2022-07-23T02:37:31;9.05;;;8.13;;
48853;SDS011;34673;52.808;17.856;2022-07-23T02:39:59;8.90;;;6.68;;
48853;SDS011;34673;52.808;17.856;2022-07-23T02:42:26;8.82;;;7.32;;
48853;SDS011;34673;52.808;17.856;2022-07-23T02:44:53;10.20;;;7.60;;
48853;SDS011;34673;52.808;17.856;2022-07-23T02:47:21;9.05;;;7.20;;
48853;SDS011;34673;52.808;17.856;2022-07-23T02:49:48;10.23;;;7.00;;
48853;SDS011;34673;52.808;17.856;2022-07-23T02:52:16;10.07;;;7.60;;
48853;SDS011;34673;52.808;17.856;2022-07-23T02:54:43;9.88;;;7.80;;
48853;SDS011;34673;52.808;17.856;2022-07-23T02:59:41;8.63;;;7.70;;
48853;SDS011;34673;52.808;17.856;2022-07-23T03:02:09;8.88;;;7.25;;
48853;SDS011;34673;52.808;17.856;2022-07-23T03:04:37;9.82;;;7.88;;
48853;SDS011;34673;52.808;17.856;2022-07-23T03:07:04;8.63;;;7.68;;
48853;SDS011;34673;52.808;17.856;2022-07-23T03:09:31;10.18;;;8.48;;
48853;SDS011;34673;52.808;17.856;2022-07-23T03:11:58;9.93;;;7.82;;
48853;SDS011;34673;52.808;17.856;2022-07-23T03:14:26;9.60;;;8.05;;
48853;SDS011;34673;52.808;17.856;2022-07-23T03:16:55;9.23;;;7.32;;
48853;SDS011;34673;52.808;17.856;2022-07-23T03:19:22;9.20;;;8.07;;
48853;SDS011;34673;52.808;17.856;2022-07-23T03:21:50;10.45;;;8.07;;
48853;SDS011;34673;52.808;17.856;2022-07-23T03:24:17;8.63;;;7.63;;
48853;SDS011;34673;52.808;17.856;2022-07-23T03:26:45;10.15;;;8.60;;
48853;SDS011;34673;52.808;17.856;2022-07-23T03:29:12;9.40;;;7.80;;
48853;SDS011;34673;52.808;17.856;2022-07-23T03:31:41;13.05;;;8.43;;
48853;SDS011;34673;52.808;17.856;2022-07-23T03:34:08;10.20;;;8.65;;
48853;SDS011;34673;52.808;17.856;2022-07-23T03:36:35;9.85;;;8.32;;
48853;SDS011;34673;52.808;17.856;2022-07-23T03:39:04;10.77;;;8.77;;
48853;SDS011;34673;52.808;17.856;2022-07-23T03:41:31;12.27;;;9.30;;
48853;SDS011;34673;52.808;17.856;2022-07-23T03:43:58;11.73;;;8.98;;
48853;SDS011;34673;52.808;17.856;2022-07-23T03:46:25;10.50;;;9.27;;
48853;SDS011;34673;52.808;17.856;2022-07-23T03:48:53;10.00;;;8.95;;
48853;SDS011;34673;52.808;17.856;2022-07-23T03:51:25;10.70;;;9.00;;
48853;SDS011;34673;52.808;17.856;2022-07-23T03:53:52;11.43;;;8.60;;
48853;SDS011;34673;52.808;17.856;2022-07-23T03:56:19;11.38;;;9.13;;
48853;SDS011;34673;52.808;17.856;2022-07-23T03:58:48;11.10;;;8.48;;
48853;SDS011;34673;52.808;17.856;2022-07-23T04:01:15;10.15;;;8.77;;
48853;SDS011;34673;52.808;17.856;2022-07-23T04:03:42;10.48;;;8.82;;
48853;SDS011;34673;52.808;17.856;2022-07-23T04:06:10;11.13;;;8.85;;
48853;SDS011;34673;52.808;17.856;2022-07-23T04:08:37;9.93;;;8.70;;
48853;SDS011;34673;52.808;17.856;2022-07-23T04:11:04;10.45;;;9.18;;
48853;SDS011;34673;52.808;17.856;2022-07-23T04:13:31;12.13;;;9.73;;
48853;SDS011;34673;52.808;17.856;2022-07-23T04:16:00;12.93;;;9.50;;
48853;SDS011;34673;52.808;17.856;2022-07-23T04:18:28;10.30;;;9.18;;
48853;SDS011;34673;52.808;17.856;2022-07-23T04:21:05;11.73;;;9.60;;
48853;SDS011;34673;52.808;17.856;2022-07-23T04:23:34;12.20;;;9.50;;
48853;SDS011;34673;52.808;17.856;2022-07-23T04:26:01;11.73;;;9.55;;
48853;SDS011;34673;52.808;17.856;2022-07-23T04:28:29;12.00;;;9.75;;
48853;SDS011;34673;52.808;17.856;2022-07-23T04:30:57;10.90;;;9.70;;
48853;SDS011;34673;52.808;17.856;2022-07-23T04:33:25;13.13;;;10.20;;
48853;SDS011;34673;52.808;17.856;2022-07-23T04:35:54;11.68;;;10.48;;
48853;SDS011;34673;52.808;17.856;2022-07-23T04:38:22;13.23;;;10.25;;
48853;SDS011;34673;52.808;17.856;2022-07-23T04:40:52;11.32;;;10.13;;
48853;SDS011;34673;52.808;17.856;2022-07-23T04:43:19;10.73;;;9.45;;
48853;SDS011;34673;52.808;17.856;2022-07-23T04:45:49;11.20;;;10.10;;
48853;SDS011;34673;52.808;17.856;2022-07-23T04:48:18;12.07;;;10.35;;
48853;SDS011;34673;52.808;17.856;2022-07-23T04:50:51;12.35;;;11.05;;
48853;SDS011;34673;52.808;17.856;2022-07-23T04:53:21;14.88;;;12.13;;
48853;SDS011;34673;52.808;17.856;2022-07-23T04:55:52;13.43;;;10.70;;
48853;SDS011;34673;52.808;17.856;2022-07-23T04:58:19;13.80;;;10.77;;
48853;SDS011;34673;52.808;17.856;2022-07-23T05:00:47;13.30;;;10.65;;
48853;SDS011;34673;52.808;17.856;2022-07-23T05:03:15;15.60;;;11.30;;
48853;SDS011;34673;52.808;17.856;2022-07-23T05:05:45;15.27;;;11.32;;
48853;SDS011;34673;52.808;17.856;2022-07-23T05:08:15;13.90;;;11.13;;
48853;SDS011;34673;52.808;17.856;2022-07-23T05:10:48;14.48;;;12.07;;
48853;SDS011;34673;52.808;17.856;2022-07-23T05:13:17;13.65;;;11.27;;
48853;SDS011;34673;52.808;17.856;2022-07-23T05:15:45;14.32;;;11.32;;
48853;SDS011;34673;52.808;17.856;2022-07-23T05:18:13;15.90;;;12.05;;
48853;SDS011;34673;52.808;17.856;2022-07-23T05:20:41;17.05;;;12.40;;
48853;SDS011;34673;52.808;17.856;2022-07-23T05:23:10;15.98;;;12.95;;
48853;SDS011;34673;52.808;17.856;2022-07-23T05:25:37;18.70;;;13.82;;
48853;SDS011;34673;52.808;17.856;2022-07-23T05:28:05;14.30;;;11.10;;
48853;SDS011;34673;52.808;17.856;2022-07-23T05:30:33;18.83;;;12.10;;
48853;SDS011;34673;52.808;17.856;2022-07-23T05:33:04;17.75;;;12.70;;
48853;SDS011;34673;52.808;17.856;2022-07-23T05:35:31;13.68;;;10.93;;
48853;SDS011;34673;52.808;17.856;2022-07-23T05:38:25;15.90;;;12.65;;
48853;SDS011;34673;52.808;17.856;2022-07-23T05:40:54;15.17;;;10.60;;
48853;SDS011;34673;52.808;17.856;2022-07-23T05:43:22;14.43;;;11.30;;
48853;SDS011;34673;52.808;17.856;2022-07-23T05:45:49;14.20;;;11.02;;
48853;SDS011;34673;52.808;17.856;2022-07-23T05:48:17;15.45;;;11.07;;
48853;SDS011;34673;52.808;17.856;2022-07-23T05:51:02;14.05;;;11.07;;
48853;SDS011;34673;52.808;17.856;2022-07-23T05:53:34;12.65;;;11.07;;
48853;SDS011;34673;52.808;17.856;2022-07-23T05:56:19;13.55;;;11.13;;
48853;SDS011;34673;52.808;17.856;2022-07-23T05:58:47;13.15;;;10.23;;
48853;SDS011;34673;52.808;17.856;2022-07-23T06:01:16;14.95;;;11.43;;
48853;SDS011;34673;52.808;17.856;2022-07-23T06:04:01;13.40;;;10.48;;
48853;SDS011;34673;52.808;17.856;2022-07-23T06:06:33;15.88;;;11.13;;
48853;SDS011;34673;52.808;17.856;2022-07-23T06:09:02;14.38;;;10.40;;
48853;SDS011;34673;52.808;17.856;2022-07-23T06:11:30;14.45;;;11.95;;
48853;SDS011;34673;52.808;17.856;2022-07-23T06:13:58;13.95;;;10.27;;
48853;SDS011;34673;52.808;17.856;2022-07-23T06:16:37;12.77;;;10.18;;
48853;SDS011;34673;52.808;17.856;2022-07-23T06:19:05;13.38;;;9.68;;
48853;SDS011;34673;52.808;17.856;2022-07-23T06:21:32;11.00;;;9.25;;
48853;SDS011;34673;52.808;17.856;2022-07-23T06:24:16;12.38;;;9.48;;
48853;SDS011;34673;52.808;17.856;2022-07-23T06:26:43;11.00;;;8.95;;
48853;SDS011;34673;52.808;17.856;2022-07-23T06:29:11;13.27;;;8.63;;
48853;SDS011;34673;52.808;17.856;2022-07-23T06:31:38;10.80;;;7.43;;
48853;SDS011;34673;52.808;17.856;2022-07-23T06:34:05;11.35;;;8.60;;
48853;SDS011;34673;52.808;17.856;2022-07-23T06:36:34;10.23;;;8.82;;
48853;SDS011;34673;52.808;17.856;2022-07-23T06:39:02;12.65;;;8.90;;
48853;SDS011;34673;52.808;17.856;2022-07-23T06:41:31;9.68;;;7.85;;
48853;SDS011;34673;52.808;17.856;2022-07-23T06:43:59;10.30;;;7.70;;
48853;SDS011;34673;52.808;17.856;2022-07-23T06:46:29;9.02;;;6.80;;
48853;SDS011;34673;52.808;17.856;2022-07-23T06:48:56;8.00;;;6.32;;
48853;SDS011;34673;52.808;17.856;2022-07-23T06:51:23;11.98;;;7.20;;
48853;SDS011;34673;52.808;17.856;2022-07-23T06:53:50;7.70;;;6.03;;
48853;SDS011;34673;52.808;17.856;2022-07-23T06:56:17;8.20;;;6.25;;
48853;SDS011;34673;52.808;17.856;2022-07-23T06:58:44;7.50;;;5.60;;
48853;SDS011;34673;52.808;17.856;2022-07-23T07:01:11;9.07;;;5.50;;
48853;SDS011;34673;52.808;17.856;2022-07-23T07:03:40;8.43;;;6.57;;
48853;SDS011;34673;52.808;17.856;2022-07-23T07:06:07;7.75;;;5.80;;
48853;SDS011;34673;52.808;17.856;2022-07-23T07:08:35;8.68;;;5.60;;
48853;SDS011;34673;52.808;17.856;2022-07-23T07:11:02;8.98;;;5.97;;
48853;SDS011;34673;52.808;17.856;2022-07-23T07:13:30;8.63;;;4.65;;
48853;SDS011;34673;52.808;17.856;2022-07-23T07:15:57;5.25;;;4.18;;
48853;SDS011;34673;52.808;17.856;2022-07-23T07:18:24;4.78;;;3.97;;
48853;SDS011;34673;52.808;17.856;2022-07-23T07:20:51;5.22;;;4.10;;
48853;SDS011;34673;52.808;17.856;2022-07-23T07:23:22;5.47;;;4.00;;
48853;SDS011;34673;52.808;17.856;2022-07-23T07:25:50;5.10;;;3.92;;
48853;SDS011;34673;52.808;17.856;2022-07-23T07:28:17;5.80;;;4.50;;
48853;SDS011;34673;52.808;17.856;2022-07-23T07:30:44;4.90;;;3.95;;
48853;SDS011;34673;52.808;17.856;2022-07-23T07:33:11;4.78;;;3.72;;
48853;SDS011;34673;52.808;17.856;2022-07-23T07:35:39;5.65;;;3.53;;
48853;SDS011;34673;52.808;17.856;2022-07-23T07:38:06;4.75;;;3.28;;
48853;SDS011;34673;52.808;17.856;2022-07-23T07:40:33;5.43;;;3.35;;
48853;SDS011;34673;52.808;17.856;2022-07-23T07:43:01;4.40;;;3.60;;
48853;SDS011;34673;52.808;17.856;2022-07-23T07:45:30;5.13;;;3.33;;
48853;SDS011;34673;52.808;17.856;2022-07-23T07:47:57;3.88;;;3.40;;
48853;SDS011;34673;52.808;17.856;2022-07-23T07:50:24;3.92;;;3.13;;
48853;SDS011;34673;52.808;17.856;2022-07-23T07:52:52;4.35;;;3.30;;
48853;SDS011;34673;52.808;17.856;2022-07-23T07:55:19;3.92;;;3.28;;
48853;SDS011;34673;52.808;17.856;2022-07-23T07:57:46;3.45;;;2.92;;
48853;SDS011;34673;52.808;17.856;2022-07-23T08:00:15;4.03;;;3.38;;
48853;SDS011;34673;52.808;17.856;2022-07-23T08:02:46;4.85;;;3.33;;
48853;SDS011;34673;52.808;17.856;2022-07-23T08:05:20;6.15;;;3.40;;
48853;SDS011;34673;52.808;17.856;2022-07-23T08:07:57;6.22;;;3.47;;
48853;SDS011;34673;52.808;17.856;2022-07-23T08:10:27;6.15;;;3.65;;
48853;SDS011;34673;52.808;17.856;2022-07-23T08:12:55;4.47;;;3.40;;
48853;SDS011;34673;52.808;17.856;2022-07-23T08:15:23;5.65;;;3.72;;
48853;SDS011;34673;52.808;17.856;2022-07-23T08:17:53;6.20;;;3.70;;
48853;SDS011;34673;52.808;17.856;2022-07-23T08:20:21;5.18;;;3.40;;
48853;SDS011;34673;52.808;17.856;2022-07-23T08:22:50;4.65;;;3.42;;
48853;SDS011;34673;52.808;17.856;2022-07-23T08:25:20;5.72;;;3.28;;
48853;SDS011;34673;52.808;17.856;2022-07-23T08:27:49;4.95;;;3.47;;
48853;SDS011;34673;52.808;17.856;2022-07-23T08:30:17;3.97;;;3.45;;
48853;SDS011;34673;52.808;17.856;2022-07-23T08:35:23;4.80;;;3.60;;
48853;SDS011;34673;52.808;17.856;2022-07-23T08:37:52;4.47;;;3.60;;
48853;SDS011;34673;52.808;17.856;2022-07-23T08:40:20;4.18;;;3.50;;
48853;SDS011;34673;52.808;17.856;2022-07-23T08:42:48;8.48;;;3.63;;
48853;SDS011;34673;52.808;17.856;2022-07-23T08:45:17;6.43;;;3.70;;
48853;SDS011;34673;52.808;17.856;2022-07-23T08:47:51;4.90;;;3.53;;
48853;SDS011;34673;52.808;17.856;2022-07-23T08:50:20;4.50;;;3.30;;
48853;SDS011;34673;52.808;17.856;2022-07-23T08:52:49;4.45;;;3.25;;
48853;SDS011;34673;52.808;17.856;2022-07-23T08:55:18;4.63;;;3.70;;
48853;SDS011;34673;52.808;17.856;2022-07-23T09:00:15;6.43;;;4.10;;
48853;SDS011;34673;52.808;17.856;2022-07-23T09:02:44;4.70;;;3.22;;
48853;SDS011;34673;52.808;17.856;2022-07-23T09:05:12;4.32;;;3.35;;
48853;SDS011;34673;52.808;17.856;2022-07-23T09:10:45;4.47;;;3.50;;
48853;SDS011;34673;52.808;17.856;2022-07-23T09:13:30;4.68;;;3.40;;
48853;SDS011;34673;52.808;17.856;2022-07-23T09:16:02;4.80;;;3.53;;
48853;SDS011;34673;52.808;17.856;2022-07-23T09:18:35;4.55;;;3.80;;
48853;SDS011;34673;52.808;17.856;2022-07-23T09:21:23;9.60;;;6.53;;
48853;SDS011;34673;52.808;17.856;2022-07-23T09:23:55;4.03;;;3.55;;
48853;SDS011;34673;52.808;17.856;2022-07-23T09:26:37;5.53;;;3.70;;
48853;SDS011;34673;52.808;17.856;2022-07-23T09:31:53;4.80;;;4.07;;
48853;SDS011;34673;52.808;17.856;2022-07-23T09:34:23;10.57;;;5.10;;
48853;SDS011;34673;52.808;17.856;2022-07-23T09:36:58;5.55;;;4.25;;
48853;SDS011;34673;52.808;17.856;2022-07-23T09:39:36;4.93;;;4.18;;
48853;SDS011;34673;52.808;17.856;2022-07-23T09:42:13;9.48;;;5.78;;
48853;SDS011;34673;52.808;17.856;2022-07-23T09:44:41;7.78;;;5.40;;
48853;SDS011;34673;52.808;17.856;2022-07-23T09:47:13;7.50;;;5.32;;
48853;SDS011;34673;52.808;17.856;2022-07-23T09:49:57;12.65;;;5.65;;
48853;SDS011;34673;52.808;17.856;2022-07-23T09:52:31;15.18;;;11.00;;
48853;SDS011;34673;52.808;17.856;2022-07-23T09:55:03;6.53;;;5.78;;
48853;SDS011;34673;52.808;17.856;2022-07-23T09:57:32;8.90;;;6.45;;
48853;SDS011;34673;52.808;17.856;2022-07-23T10:00:01;10.20;;;6.60;;
48853;SDS011;34673;52.808;17.856;2022-07-23T10:02:34;8.45;;;6.13;;
48853;SDS011;34673;52.808;17.856;2022-07-23T10:05:20;14.68;;;6.10;;
48853;SDS011;34673;52.808;17.856;2022-07-23T10:08:06;7.97;;;6.10;;
48853;SDS011;34673;52.808;17.856;2022-07-23T10:10:56;10.63;;;6.45;;
48853;SDS011;34673;52.808;17.856;2022-07-23T10:13:44;7.97;;;6.80;;
48853;SDS011;34673;52.808;17.856;2022-07-23T10:16:41;10.77;;;6.65;;
48853;SDS011;34673;52.808;17.856;2022-07-23T10:19:08;8.90;;;7.18;;
48853;SDS011;34673;52.808;17.856;2022-07-23T10:21:40;10.90;;;6.68;;
48853;SDS011;34673;52.808;17.856;2022-07-23T10:24:17;9.68;;;6.97;;
48853;SDS011;34673;52.808;17.856;2022-07-23T10:26:53;9.38;;;7.18;;
48853;SDS011;34673;52.808;17.856;2022-07-23T10:37:54;15.57;;;11.63;;
48853;SDS011;34673;52.808;17.856;2022-07-23T10:40:24;11.05;;;7.97;;
48853;SDS011;34673;52.808;17.856;2022-07-23T10:42:52;11.57;;;8.00;;
48853;SDS011;34673;52.808;17.856;2022-07-23T10:45:33;8.73;;;7.83;;
48853;SDS011;34673;52.808;17.856;2022-07-23T10:48:13;10.65;;;8.38;;
48853;SDS011;34673;52.808;17.856;2022-07-23T10:51:05;9.35;;;7.80;;
48853;SDS011;34673;52.808;17.856;2022-07-23T10:53:52;11.02;;;8.82;;
48853;SDS011;34673;52.808;17.856;2022-07-23T10:59:16;17.13;;;7.30;;
48853;SDS011;34673;52.808;17.856;2022-07-23T11:01:45;7.95;;;6.05;;
48853;SDS011;34673;52.808;17.856;2022-07-23T11:04:14;6.95;;;5.68;;
48853;SDS011;34673;52.808;17.856;2022-07-23T11:09:28;6.80;;;5.70;;
48853;SDS011;34673;52.808;17.856;2022-07-23T11:28:21;7.97;;;7.18;;
48853;SDS011;34673;52.808;17.856;2022-07-23T11:30:52;9.88;;;6.97;;
48853;SDS011;34673;52.808;17.856;2022-07-23T11:33:20;9.23;;;7.88;;
48853;SDS011;34673;52.808;17.856;2022-07-23T11:35:50;10.00;;;7.82;;
48853;SDS011;34673;52.808;17.856;2022-07-23T11:38:30;8.82;;;7.93;;
48853;SDS011;34673;52.808;17.856;2022-07-23T11:43:26;11.73;;;8.70;;
48853;SDS011;34673;52.808;17.856;2022-07-23T11:45:57;9.40;;;8.40;;
48853;SDS011;34673;52.808;17.856;2022-07-23T11:48:27;10.98;;;9.10;;
48853;SDS011;34673;52.808;17.856;2022-07-23T11:50:57;10.82;;;8.32;;
48853;SDS011;34673;52.808;17.856;2022-07-23T11:53:26;10.20;;;8.82;;
48853;SDS011;34673;52.808;17.856;2022-07-23T11:56:02;11.03;;;9.20;;
48853;SDS011;34673;52.808;17.856;2022-07-23T11:58:32;13.57;;;9.18;;
48853;SDS011;34673;52.808;17.856;2022-07-23T12:01:00;11.95;;;9.75;;
48853;SDS011;34673;52.808;17.856;2022-07-23T12:03:28;11.77;;;9.27;;
48853;SDS011;34673;52.808;17.856;2022-07-23T12:05:56;12.80;;;10.18;;
48853;SDS011;34673;52.808;17.856;2022-07-23T12:08:25;13.00;;;9.45;;
48853;SDS011;34673;52.808;17.856;2022-07-23T12:10:52;11.65;;;10.07;;
48853;SDS011;34673;52.808;17.856;2022-07-23T12:13:20;12.60;;;9.90;;
48853;SDS011;34673;52.808;17.856;2022-07-23T12:15:52;10.63;;;8.88;;
48853;SDS011;34673;52.808;17.856;2022-07-23T12:18:21;12.20;;;9.50;;
48853;SDS011;34673;52.808;17.856;2022-07-23T12:20:51;12.68;;;9.07;;
48853;SDS011;34673;52.808;17.856;2022-07-23T12:25:49;17.73;;;11.10;;
48853;SDS011;34673;52.808;17.856;2022-07-23T12:28:22;10.47;;;9.17;;
48853;SDS011;34673;52.808;17.856;2022-07-23T12:30:55;10.05;;;8.52;;
48853;SDS011;34673;52.808;17.856;2022-07-23T12:35:54;11.27;;;8.90;;
48853;SDS011;34673;52.808;17.856;2022-07-23T12:38:23;9.85;;;8.05;;
48853;SDS011;34673;52.808;17.856;2022-07-23T12:40:52;9.82;;;8.63;;
48853;SDS011;34673;52.808;17.856;2022-07-23T12:43:25;11.43;;;9.38;;
48853;SDS011;34673;52.808;17.856;2022-07-23T12:46:09;9.52;;;8.40;;
48853;SDS011;34673;52.808;17.856;2022-07-23T12:51:21;11.57;;;8.27;;
48853;SDS011;34673;52.808;17.856;2022-07-23T12:54:15;11.02;;;9.02;;
48853;SDS011;34673;52.808;17.856;2022-07-23T12:56:45;9.43;;;8.13;;
48853;SDS011;34673;52.808;17.856;2022-07-23T12:59:14;10.23;;;8.18;;
48853;SDS011;34673;52.808;17.856;2022-07-23T13:04:21;8.63;;;7.82;;
48853;SDS011;34673;52.808;17.856;2022-07-23T13:09:23;11.35;;;8.95;;
48853;SDS011;34673;52.808;17.856;2022-07-23T13:11:58;9.70;;;8.75;;
48853;SDS011;34673;52.808;17.856;2022-07-23T13:14:26;10.80;;;8.35;;
48853;SDS011;34673;52.808;17.856;2022-07-23T13:16:55;10.75;;;8.95;;
48853;SDS011;34673;52.808;17.856;2022-07-23T13:19:25;10.80;;;8.35;;
48853;SDS011;34673;52.808;17.856;2022-07-23T13:21:53;9.60;;;8.60;;
48853;SDS011;34673;52.808;17.856;2022-07-23T13:24:21;13.20;;;9.05;;
48853;SDS011;34673;52.808;17.856;2022-07-23T13:26:48;10.77;;;8.13;;
48853;SDS011;34673;52.808;17.856;2022-07-23T13:29:18;8.90;;;8.00;;
48853;SDS011;34673;52.808;17.856;2022-07-23T13:31:46;8.45;;;6.50;;
48853;SDS011;34673;52.808;17.856;2022-07-23T13:34:15;8.98;;;6.25;;
48853;SDS011;34673;52.808;17.856;2022-07-23T13:36:42;7.75;;;6.20;;
48853;SDS011;34673;52.808;17.856;2022-07-23T13:39:10;6.90;;;6.20;;
48853;SDS011;34673;52.808;17.856;2022-07-23T13:41:38;6.10;;;5.50;;
48853;SDS011;34673;52.808;17.856;2022-07-23T13:44:15;7.45;;;5.32;;
48853;SDS011;34673;52.808;17.856;2022-07-23T13:46:42;7.00;;;5.82;;
48853;SDS011;34673;52.808;17.856;2022-07-23T13:49:10;6.50;;;5.75;;
48853;SDS011;34673;52.808;17.856;2022-07-23T13:51:39;8.80;;;6.53;;
48853;SDS011;34673;52.808;17.856;2022-07-23T13:54:08;8.88;;;7.07;;
48853;SDS011;34673;52.808;17.856;2022-07-23T13:56:35;7.93;;;7.05;;
48853;SDS011;34673;52.808;17.856;2022-07-23T13:59:03;7.78;;;6.60;;
48853;SDS011;34673;52.808;17.856;2022-07-23T14:01:33;8.52;;;6.60;;
48853;SDS011;34673;52.808;17.856;2022-07-23T14:04:21;6.00;;;5.38;;
48853;SDS011;34673;52.808;17.856;2022-07-23T14:06:49;8.13;;;6.03;;
48853;SDS011;34673;52.808;17.856;2022-07-23T14:09:20;7.18;;;6.25;;
48853;SDS011;34673;52.808;17.856;2022-07-23T14:11:51;8.98;;;6.03;;
48853;SDS011;34673;52.808;17.856;2022-07-23T14:14:19;6.22;;;5.63;;
48853;SDS011;34673;52.808;17.856;2022-07-23T14:16:47;6.88;;;5.93;;
48853;SDS011;34673;52.808;17.856;2022-07-23T14:19:15;7.15;;;5.93;;
48853;SDS011;34673;52.808;17.856;2022-07-23T14:21:43;7.68;;;5.43;;
48853;SDS011;34673;52.808;17.856;2022-07-23T14:24:11;6.55;;;5.22;;
48853;SDS011;34673;52.808;17.856;2022-07-23T14:26:39;6.40;;;5.25;;
48853;SDS011;34673;52.808;17.856;2022-07-23T14:29:07;6.88;;;5.78;;
48853;SDS011;34673;52.808;17.856;2022-07-23T14:31:34;5.65;;;5.07;;
48853;SDS011;34673;52.808;17.856;2022-07-23T14:34:03;6.18;;;5.25;;
48853;SDS011;34673;52.808;17.856;2022-07-23T14:36:33;6.30;;;5.40;;
48853;SDS011;34673;52.808;17.856;2022-07-23T14:39:00;6.65;;;5.63;;
48853;SDS011;34673;52.808;17.856;2022-07-23T14:41:28;6.72;;;5.78;;
48853;SDS011;34673;52.808;17.856;2022-07-23T14:43:56;5.97;;;5.28;;
48853;SDS011;34673;52.808;17.856;2022-07-23T14:46:24;6.10;;;5.50;;
48853;SDS011;34673;52.808;17.856;2022-07-23T14:48:52;6.40;;;5.45;;
48853;SDS011;34673;52.808;17.856;2022-07-23T14:51:21;6.45;;;5.78;;
48853;SDS011;34673;52.808;17.856;2022-07-23T14:53:53;7.32;;;5.30;;
48853;SDS011;34673;52.808;17.856;2022-07-23T14:56:21;7.20;;;5.45;;
48853;SDS011;34673;52.808;17.856;2022-07-23T14:58:48;7.70;;;5.65;;
48853;SDS011;34673;52.808;17.856;2022-07-23T15:01:15;6.32;;;5.00;;
48853;SDS011;34673;52.808;17.856;2022-07-23T15:03:43;6.03;;;5.13;;
48853;SDS011;34673;52.808;17.856;2022-07-23T15:06:10;9.20;;;5.55;;
48853;SDS011;34673;52.808;17.856;2022-07-23T15:08:38;6.07;;;4.95;;
48853;SDS011;34673;52.808;17.856;2022-07-23T15:11:06;6.30;;;5.65;;
48853;SDS011;34673;52.808;17.856;2022-07-23T15:13:36;6.22;;;5.07;;
48853;SDS011;34673;52.808;17.856;2022-07-23T15:16:05;6.63;;;5.47;;
48853;SDS011;34673;52.808;17.856;2022-07-23T15:18:36;6.38;;;5.07;;
48853;SDS011;34673;52.808;17.856;2022-07-23T15:21:03;6.60;;;5.13;;
48853;SDS011;34673;52.808;17.856;2022-07-23T15:23:33;7.25;;;5.25;;
48853;SDS011;34673;52.808;17.856;2022-07-23T15:26:01;7.40;;;5.05;;
48853;SDS011;34673;52.808;17.856;2022-07-23T15:28:29;6.63;;;4.93;;
48853;SDS011;34673;52.808;17.856;2022-07-23T15:30:57;5.82;;;5.00;;
48853;SDS011;34673;52.808;17.856;2022-07-23T15:33:24;6.43;;;5.20;;
48853;SDS011;34673;52.808;17.856;2022-07-23T15:35:52;6.72;;;5.57;;
48853;SDS011;34673;52.808;17.856;2022-07-23T15:40:52;6.10;;;5.50;;
48853;SDS011;34673;52.808;17.856;2022-07-23T15:43:23;6.93;;;5.20;;
48853;SDS011;34673;52.808;17.856;2022-07-23T15:45:52;7.38;;;5.07;;